METAR Data
IDs: Format: Raw Decoded Include TAF

Data at: 1953 UTC 26 Sep 2021

METAR for:KSPA (Spartanburg/Downtown, SC, US)
Text:KSPA 261935Z AUTO 00000KT 10SM CLR 25/09 A3009 RMK AO2
Temperature: 25.0°C ( 77°F)
Dewpoint: 9.0°C ( 48°F) [RH = 36%]
Pressure (altimeter):30.09 inches Hg (1019.0 mb)
Winds:calm
Visibility:10 or more sm (16+ km)
Ceiling:at least 12,000 feet AGL
Clouds:sky clear below 12,000 feet AGL
QC Flag:automated observation with no human augmentation

TAF for:KSPA (Spartanburg/Downtown, SC, US)
Text:No data found